createdAt,value
2023-05-21T00:00:20.565Z,1200.00
2023-05-21T00:01:20.646Z,1001.00
2023-05-21T00:02:20.768Z,1033.00
2023-05-21T00:03:20.858Z,1027.00
2023-05-21T00:04:20.817Z,945.00
2023-05-21T00:05:20.876Z,985.00
2023-05-21T00:06:21.167Z,934.00
2023-05-21T00:07:21.061Z,625.00
2023-05-21T00:08:21.098Z,666.00
2023-05-21T00:09:21.155Z,661.00
2023-05-21T00:10:21.549Z,624.00
2023-05-21T00:11:21.297Z,654.00
2023-05-21T00:12:21.332Z,625.00
2023-05-21T00:13:21.401Z,542.00
2023-05-21T00:14:21.468Z,519.00
2023-05-21T00:15:21.479Z,439.00
2023-05-21T00:16:21.600Z,436.00
2023-05-21T00:17:21.610Z,512.00
2023-05-21T00:18:21.618Z,529.00
2023-05-21T00:19:21.762Z,616.00
2023-05-21T00:20:21.755Z,562.00
2023-05-21T00:21:21.829Z,588.00
2023-05-21T00:22:21.900Z,605.00
2023-05-21T00:23:22.046Z,618.00
2023-05-21T00:24:22.036Z,665.00
2023-05-21T00:25:22.112Z,771.00
2023-05-21T00:26:22.209Z,709.00
2023-05-21T00:27:22.253Z,688.00
2023-05-21T00:28:22.317Z,737.00
2023-05-21T00:29:22.384Z,903.00
2023-05-21T00:30:22.429Z,1086.00
2023-05-21T00:31:22.520Z,1317.00
2023-05-21T00:32:22.593Z,1639.00
2023-05-21T00:33:22.634Z,1952.00
2023-05-21T00:34:22.698Z,2142.00
2023-05-21T00:35:22.756Z,2163.00
2023-05-21T00:36:22.762Z,2429.00
2023-05-21T00:37:22.814Z,2524.00
2023-05-21T00:38:22.874Z,2528.00
2023-05-21T00:39:22.935Z,2550.00
2023-05-21T00:40:22.982Z,2602.00
2023-05-21T00:41:23.045Z,2364.00
2023-05-21T00:42:23.085Z,2166.00
2023-05-21T00:43:23.160Z,1949.00
2023-05-21T00:44:23.253Z,1797.00
2023-05-21T00:45:23.330Z,1558.00
2023-05-21T00:46:23.489Z,1490.00
2023-05-21T00:47:23.504Z,1700.00
2023-05-21T00:48:23.514Z,1890.00
2023-05-21T00:49:23.545Z,2025.00
2023-05-21T00:50:23.553Z,2169.00
2023-05-21T00:51:23.621Z,2382.00
2023-05-21T00:52:23.679Z,2651.00
2023-05-21T00:53:23.765Z,2805.00
2023-05-21T00:54:23.830Z,2741.00
2023-05-21T00:55:23.966Z,2729.00
2023-05-21T00:56:23.918Z,2597.00
2023-05-21T00:57:23.954Z,2707.00
2023-05-21T00:58:24.004Z,2646.00
2023-05-21T00:59:24.076Z,2548.00
2023-05-21T01:00:24.134Z,2547.00
2023-05-21T01:01:24.242Z,2458.00
2023-05-21T01:02:24.546Z,2172.00
2023-05-21T01:03:24.498Z,2226.00
2023-05-21T01:04:24.266Z,2454.00
2023-05-21T01:05:24.281Z,2518.00
2023-05-21T01:06:24.307Z,2647.00
2023-05-21T01:07:24.330Z,2579.00
2023-05-21T01:08:24.356Z,2622.00
2023-05-21T01:09:24.395Z,2557.00
2023-05-21T01:10:24.388Z,2569.00
2023-05-21T01:11:24.391Z,2714.00
2023-05-21T01:12:24.442Z,2781.00
2023-05-21T01:13:24.432Z,2659.00
2023-05-21T01:14:24.497Z,2608.00
2023-05-21T01:15:24.501Z,2494.00
2023-05-21T01:16:24.570Z,2506.00
2023-05-21T01:17:24.661Z,2471.00
2023-05-21T01:18:24.588Z,2616.00
2023-05-21T01:19:24.578Z,2758.00
2023-05-21T01:20:24.577Z,2389.00
2023-05-21T01:21:24.581Z,2224.00
2023-05-21T01:22:24.629Z,1875.00
2023-05-21T01:23:24.675Z,1636.00
2023-05-21T01:24:24.676Z,1607.00
2023-05-21T01:25:24.748Z,1733.00
2023-05-21T01:26:24.726Z,1827.00
2023-05-21T01:27:24.739Z,1695.00
2023-05-21T01:28:24.735Z,1727.00
2023-05-21T01:29:24.761Z,1842.00
2023-05-21T01:30:24.789Z,1988.00
2023-05-21T01:31:24.797Z,2126.00
2023-05-21T01:32:24.870Z,2190.00
2023-05-21T01:33:24.946Z,2330.00
2023-05-21T01:34:24.911Z,2557.00
2023-05-21T01:35:24.969Z,2613.00
2023-05-21T01:36:25.018Z,2813.00
2023-05-21T01:37:25.053Z,2741.00
2023-05-21T01:38:25.054Z,2634.00
2023-05-21T01:39:25.134Z,2698.00
2023-05-21T01:40:25.156Z,2711.00
2023-05-21T01:41:25.220Z,2511.00
2023-05-21T01:42:25.302Z,2249.00
2023-05-21T01:43:25.330Z,2192.00
2023-05-21T01:44:25.416Z,2491.00
2023-05-21T01:45:25.546Z,2835.00
2023-05-21T01:46:25.521Z,2933.00
2023-05-21T01:47:25.610Z,3095.00
2023-05-21T01:48:25.645Z,2998.00
2023-05-21T01:49:25.666Z,2752.00
2023-05-21T01:50:25.778Z,2580.00
2023-05-21T01:51:25.758Z,2374.00
2023-05-21T01:52:25.883Z,2480.00
2023-05-21T01:53:25.799Z,2562.00
2023-05-21T01:54:25.865Z,2564.00
2023-05-21T01:55:25.938Z,2841.00
2023-05-21T01:56:25.994Z,3218.00
2023-05-21T01:57:25.983Z,3374.00
2023-05-21T01:58:26.014Z,3600.00
2023-05-21T01:59:26.008Z,3665.00
2023-05-21T02:00:26.026Z,3667.00
2023-05-21T02:01:26.076Z,3690.00
2023-05-21T02:02:26.104Z,3776.00
2023-05-21T02:03:26.120Z,4003.00
2023-05-21T02:04:26.120Z,4049.00
2023-05-21T02:05:26.554Z,4147.00
2023-05-21T02:06:26.056Z,3998.00
2023-05-21T02:07:26.072Z,3810.00
2023-05-21T02:08:26.090Z,3433.00
2023-05-21T02:09:26.094Z,3166.00
2023-05-21T02:10:26.124Z,3074.00
2023-05-21T02:11:26.124Z,3030.00
2023-05-21T02:12:26.149Z,2950.00
2023-05-21T02:13:26.853Z,2932.00
2023-05-21T02:14:26.218Z,2981.00
2023-05-21T02:15:26.272Z,3081.00
2023-05-21T02:16:26.420Z,3098.00
2023-05-21T02:17:26.480Z,3037.00
2023-05-21T02:18:26.447Z,3032.00
2023-05-21T02:19:27.050Z,3004.00
2023-05-21T02:20:26.510Z,2978.00
2023-05-21T02:21:26.574Z,2790.00
2023-05-21T02:22:26.615Z,2538.00
2023-05-21T02:23:26.683Z,2459.00
2023-05-21T02:24:26.698Z,2180.00
2023-05-21T02:25:26.772Z,2109.00
2023-05-21T02:26:26.840Z,2178.00
2023-05-21T02:27:26.841Z,2003.00
2023-05-21T02:28:26.864Z,1966.00
2023-05-21T02:29:26.880Z,1997.00
2023-05-21T02:30:26.963Z,2154.00
2023-05-21T02:31:27.041Z,2317.00
2023-05-21T02:32:27.193Z,2190.00
2023-05-21T02:33:27.158Z,1957.00
2023-05-21T02:34:27.365Z,1756.00
2023-05-21T02:35:27.252Z,1758.00
2023-05-21T02:36:27.321Z,1839.00
2023-05-21T02:37:27.440Z,1821.00
2023-05-21T02:38:27.488Z,1862.00
2023-05-21T02:39:27.540Z,1911.00
2023-05-21T02:40:27.625Z,1873.00
2023-05-21T02:41:27.807Z,1898.00
2023-05-21T02:42:27.756Z,2031.00
2023-05-21T02:43:28.047Z,1954.00
2023-05-21T02:44:27.823Z,2029.00
2023-05-21T02:45:27.848Z,2002.00
2023-05-21T02:46:27.985Z,1909.00
2023-05-21T02:47:27.984Z,1998.00
2023-05-21T02:48:28.010Z,2132.00
2023-05-21T02:49:28.067Z,2335.00
2023-05-21T02:50:28.139Z,2350.00
2023-05-21T02:51:28.215Z,2212.00
2023-05-21T02:52:28.276Z,2234.00
2023-05-21T02:53:28.297Z,2237.00
2023-05-21T02:54:28.312Z,2245.00
2023-05-21T02:55:28.335Z,2216.00
2023-05-21T02:56:28.360Z,2115.00
2023-05-21T02:57:28.364Z,1969.00
2023-05-21T02:58:28.367Z,1840.00
2023-05-21T02:59:28.400Z,1792.00
2023-05-21T03:00:28.436Z,1754.00
2023-05-21T03:01:28.491Z,1612.00
2023-05-21T03:02:28.532Z,1330.00
2023-05-21T03:03:28.598Z,1583.00
2023-05-21T03:04:28.520Z,1723.00
2023-05-21T03:05:28.537Z,1629.00
2023-05-21T03:06:28.540Z,1763.00
2023-05-21T03:07:28.573Z,1560.00
2023-05-21T03:08:28.570Z,1633.00
2023-05-21T03:09:28.618Z,1700.00
2023-05-21T03:10:28.667Z,1866.00
2023-05-21T03:11:28.762Z,1959.00
2023-05-21T03:12:28.833Z,2005.00
2023-05-21T03:13:28.931Z,2321.00
2023-05-21T03:14:28.946Z,2380.00
2023-05-21T03:15:28.999Z,2484.00
2023-05-21T03:16:29.121Z,2581.00
2023-05-21T03:17:29.156Z,2600.00
2023-05-21T03:18:29.164Z,2660.00
2023-05-21T03:19:29.288Z,2738.00
2023-05-21T03:20:29.311Z,2806.00
2023-05-21T03:21:29.388Z,2839.00
2023-05-21T03:22:29.447Z,2777.00
2023-05-21T03:23:29.523Z,2808.00
2023-05-21T03:24:29.563Z,2797.00
2023-05-21T03:25:29.618Z,2686.00
2023-05-21T03:26:29.708Z,2537.00
2023-05-21T03:27:29.762Z,2370.00
2023-05-21T03:28:29.841Z,2446.00
2023-05-21T03:29:29.899Z,2571.00
2023-05-21T03:30:29.968Z,2707.00
2023-05-21T03:31:30.042Z,2794.00
2023-05-21T03:32:30.061Z,2887.00
2023-05-21T03:33:30.145Z,2991.00
2023-05-21T03:34:30.207Z,3116.00
2023-05-21T03:35:30.232Z,3278.00
2023-05-21T03:36:30.355Z,3335.00
2023-05-21T03:37:30.392Z,3316.00
2023-05-21T03:38:30.441Z,3381.00
2023-05-21T03:39:30.539Z,3580.00
2023-05-21T03:40:30.571Z,3867.00
2023-05-21T03:41:30.572Z,4070.00
2023-05-21T03:42:30.648Z,4145.00
2023-05-21T03:43:30.714Z,4267.00
2023-05-21T03:44:30.794Z,4355.00
2023-05-21T03:45:30.813Z,4217.00
2023-05-21T03:46:30.952Z,4150.00
2023-05-21T03:47:30.874Z,4132.00
2023-05-21T03:48:30.939Z,4043.00
2023-05-21T03:49:30.981Z,4038.00
2023-05-21T03:50:31.023Z,4050.00
2023-05-21T03:51:31.018Z,4116.00
2023-05-21T03:52:31.095Z,4058.00
2023-05-21T03:53:31.100Z,3883.00
2023-05-21T03:54:31.150Z,3782.00
2023-05-21T03:55:31.246Z,3760.00
2023-05-21T03:56:31.258Z,3841.00
2023-05-21T03:57:31.285Z,3842.00
2023-05-21T03:58:31.359Z,3849.00
2023-05-21T03:59:31.399Z,3789.00
2023-05-21T04:00:31.449Z,3832.00
2023-05-21T04:01:31.412Z,3686.00
2023-05-21T04:02:31.527Z,3713.00
2023-05-21T04:03:31.620Z,3796.00
2023-05-21T04:04:31.547Z,3570.00
2023-05-21T04:05:31.550Z,3419.00
2023-05-21T04:06:31.559Z,3547.00
2023-05-21T04:07:31.575Z,3537.00
2023-05-21T04:08:31.641Z,3585.00
2023-05-21T04:09:31.627Z,3307.00
2023-05-21T04:10:31.677Z,2647.00
2023-05-21T04:11:32.535Z,2544.00
2023-05-21T04:12:31.681Z,2472.00
2023-05-21T04:13:31.742Z,2477.00
2023-05-21T04:14:32.551Z,2588.00
2023-05-21T04:15:31.820Z,2976.00
2023-05-21T04:16:31.905Z,3195.00
2023-05-21T04:17:31.940Z,3291.00
2023-05-21T04:18:31.941Z,3284.00
2023-05-21T04:19:32.160Z,3364.00
2023-05-21T04:20:32.544Z,3921.00
2023-05-21T04:21:32.003Z,4335.00
2023-05-21T04:22:32.033Z,4423.00
2023-05-21T04:23:32.178Z,4663.00
2023-05-21T04:24:32.061Z,4305.00
2023-05-21T04:25:32.131Z,4060.00
2023-05-21T04:26:32.096Z,3830.00
2023-05-21T04:27:32.107Z,4151.00
2023-05-21T04:28:32.118Z,4061.00
2023-05-21T04:29:32.205Z,4143.00
2023-05-21T04:30:32.226Z,4226.00
2023-05-21T04:31:32.248Z,4020.00
2023-05-21T04:32:32.232Z,3733.00
2023-05-21T04:33:32.173Z,3811.00
2023-05-21T04:34:32.142Z,3760.00
2023-05-21T04:35:32.130Z,3689.00
2023-05-21T04:36:32.119Z,3815.00
2023-05-21T04:37:32.098Z,3977.00
2023-05-21T04:38:33.103Z,4003.00
2023-05-21T04:39:32.020Z,4075.00
2023-05-21T04:40:32.047Z,3806.00
2023-05-21T04:41:32.003Z,3624.00
2023-05-21T04:42:32.026Z,3544.00
2023-05-21T04:43:32.061Z,3384.00
2023-05-21T04:44:32.175Z,3277.00
2023-05-21T04:45:32.118Z,3212.00
2023-05-21T04:46:32.147Z,3275.00
2023-05-21T04:47:33.110Z,3475.00
2023-05-21T04:48:32.193Z,4023.00
2023-05-21T04:49:32.189Z,4119.00
2023-05-21T04:50:32.229Z,4284.00
2023-05-21T04:51:32.236Z,4159.00
2023-05-21T04:52:32.261Z,3955.00
2023-05-21T04:53:32.285Z,3736.00
2023-05-21T04:54:32.314Z,3660.00
2023-05-21T04:55:32.376Z,3771.00
2023-05-21T04:56:32.398Z,3842.00
2023-05-21T04:57:32.405Z,3543.00
2023-05-21T04:58:32.392Z,3438.00
2023-05-21T04:59:32.397Z,3344.00
2023-05-21T05:00:32.489Z,2943.00
2023-05-21T05:01:32.464Z,2527.00
2023-05-21T05:02:32.536Z,2010.00
2023-05-21T05:03:32.586Z,1810.00
2023-05-21T05:04:32.541Z,1637.00
2023-05-21T05:05:32.556Z,1314.00
2023-05-21T05:06:32.583Z,711.00
2023-05-21T05:07:32.650Z,494.00
2023-05-21T05:08:32.680Z,486.00
2023-05-21T05:09:32.687Z,400.00
2023-05-21T05:10:32.705Z,400.00
2023-05-21T05:11:32.782Z,536.00
2023-05-21T05:12:32.790Z,568.00
2023-05-21T05:13:32.842Z,599.00
2023-05-21T05:14:32.887Z,531.00
2023-05-21T05:15:32.856Z,490.00
2023-05-21T05:16:32.989Z,509.00
2023-05-21T05:17:32.943Z,499.00
2023-05-21T05:18:32.929Z,435.00
2023-05-21T05:19:33.039Z,400.00
2023-05-21T05:20:32.963Z,400.00
2023-05-21T05:21:32.992Z,400.00
2023-05-21T05:22:33.038Z,400.00
2023-05-21T05:23:33.108Z,466.00
2023-05-21T05:24:33.110Z,505.00
2023-05-21T05:25:33.190Z,615.00
2023-05-21T05:26:33.208Z,643.00
2023-05-21T05:27:33.229Z,591.00
2023-05-21T05:28:33.315Z,761.00
2023-05-21T05:29:33.338Z,1198.00
2023-05-21T05:30:33.372Z,1546.00
2023-05-21T05:31:33.351Z,1756.00
2023-05-21T05:32:33.428Z,1818.00
2023-05-21T05:33:33.386Z,2025.00
2023-05-21T05:34:33.407Z,2379.00
2023-05-21T05:35:33.663Z,2495.00
2023-05-21T05:36:33.442Z,2363.00
2023-05-21T05:37:33.418Z,2313.00
2023-05-21T05:38:33.374Z,2357.00
2023-05-21T05:39:33.322Z,2393.00
2023-05-21T05:40:33.321Z,2304.00
2023-05-21T05:41:33.328Z,1395.00
2023-05-21T05:42:33.303Z,1278.00
2023-05-21T05:43:33.265Z,1407.00
2023-05-21T05:44:33.234Z,1639.00
2023-05-21T05:45:33.246Z,1527.00
2023-05-21T05:46:33.297Z,1636.00
2023-05-21T05:47:33.265Z,1787.00
2023-05-21T05:48:33.217Z,1638.00
2023-05-21T05:49:33.170Z,1776.00
2023-05-21T05:50:33.191Z,1475.00
2023-05-21T05:51:33.202Z,1405.00
2023-05-21T05:52:33.188Z,1159.00
2023-05-21T05:53:33.158Z,1161.00
2023-05-21T05:54:33.159Z,563.00
2023-05-21T05:55:33.158Z,400.00
2023-05-21T05:56:33.153Z,400.00
2023-05-21T05:57:33.090Z,740.00
2023-05-21T05:58:33.086Z,960.00
2023-05-21T05:59:33.054Z,605.00
2023-05-21T06:00:33.089Z,400.00
2023-05-21T06:01:33.035Z,400.00
2023-05-21T06:02:33.222Z,400.00
2023-05-21T06:03:33.107Z,400.00
2023-05-21T06:04:33.031Z,400.00
2023-05-21T06:05:33.052Z,400.00
2023-05-21T06:06:33.043Z,400.00
2023-05-21T06:07:33.043Z,400.00
2023-05-21T06:08:36.029Z,400.00
2023-05-21T06:09:33.094Z,401.00
2023-05-21T06:10:33.082Z,429.00
2023-05-21T06:11:33.112Z,477.00
2023-05-21T06:12:33.041Z,556.00
2023-05-21T06:13:33.051Z,490.00
2023-05-21T06:14:33.025Z,400.00
2023-05-21T06:15:33.021Z,400.00
2023-05-21T06:16:33.038Z,400.00
2023-05-21T06:17:32.980Z,400.00
2023-05-21T06:18:32.920Z,420.00
2023-05-21T06:19:33.075Z,459.00
2023-05-21T06:20:32.884Z,604.00
2023-05-21T06:21:32.828Z,651.00
2023-05-21T06:22:32.815Z,648.00
2023-05-21T06:23:32.818Z,734.00
2023-05-21T06:24:32.760Z,811.00
2023-05-21T06:25:32.832Z,670.00
2023-05-21T06:26:32.662Z,1450.00
2023-05-21T06:27:33.582Z,1436.00
2023-05-21T06:28:32.631Z,1391.00
2023-05-21T06:29:32.604Z,1357.00
2023-05-21T06:30:32.555Z,1128.00
2023-05-21T06:31:32.527Z,1120.00
2023-05-21T06:32:32.515Z,1332.00
2023-05-21T06:33:32.483Z,1153.00
2023-05-21T06:34:32.406Z,1226.00
2023-05-21T06:35:32.372Z,1218.00
2023-05-21T06:36:32.367Z,1378.00
2023-05-21T06:37:32.335Z,1281.00
2023-05-21T06:38:32.307Z,1075.00
2023-05-21T06:39:32.273Z,994.00
2023-05-21T06:40:32.237Z,1127.00
2023-05-21T06:41:32.181Z,1202.00
2023-05-21T06:42:32.136Z,910.00
2023-05-21T06:43:32.109Z,739.00
2023-05-21T06:44:32.088Z,863.00
2023-05-21T06:45:32.118Z,1089.00
2023-05-21T06:46:32.104Z,1464.00
2023-05-21T06:47:32.053Z,1633.00
2023-05-21T06:48:31.930Z,1467.00
2023-05-21T06:49:31.874Z,1397.00
2023-05-21T06:50:31.867Z,1785.00
2023-05-21T06:51:31.807Z,1732.00
2023-05-21T06:52:31.815Z,1853.00
2023-05-21T06:53:31.717Z,1948.00
2023-05-21T06:54:31.674Z,1821.00
2023-05-21T06:55:31.637Z,1934.00
2023-05-21T06:56:31.570Z,1772.00
2023-05-21T06:57:31.517Z,1461.00
2023-05-21T06:58:31.502Z,1255.00
2023-05-21T06:59:31.450Z,1276.00
2023-05-21T07:00:31.422Z,1178.00
2023-05-21T07:01:31.417Z,1209.00
2023-05-21T07:02:31.435Z,1528.00
2023-05-21T07:03:31.410Z,1704.00
2023-05-21T07:04:31.228Z,1930.00
2023-05-21T07:05:31.194Z,2246.00
2023-05-21T07:06:31.133Z,2750.00
2023-05-21T07:07:31.086Z,2849.00
2023-05-21T07:08:31.033Z,2673.00
2023-05-21T07:09:30.989Z,2611.00
2023-05-21T07:10:30.927Z,2407.00
2023-05-21T07:11:30.867Z,2096.00
2023-05-21T07:12:30.818Z,2092.00
2023-05-21T07:13:30.759Z,2029.00
2023-05-21T07:14:30.720Z,1662.00
2023-05-21T07:15:30.661Z,1900.00
2023-05-21T07:16:30.635Z,1905.00
2023-05-21T07:17:30.666Z,2269.00
2023-05-21T07:18:30.526Z,2381.00
2023-05-21T07:19:30.463Z,2118.00
2023-05-21T07:20:30.360Z,1980.00
2023-05-21T07:21:30.305Z,1904.00
2023-05-21T07:22:30.227Z,1656.00
2023-05-21T07:23:30.161Z,2103.00
2023-05-21T07:24:30.134Z,1945.00
2023-05-21T07:25:30.053Z,2068.00
2023-05-21T07:26:29.973Z,1877.00
2023-05-21T07:27:29.922Z,1635.00
2023-05-21T07:28:29.866Z,1503.00
2023-05-21T07:29:29.859Z,1659.00
2023-05-21T07:30:29.863Z,1835.00
2023-05-21T07:31:29.903Z,2149.00
2023-05-21T07:32:29.890Z,2058.00
2023-05-21T07:33:29.864Z,1689.00
2023-05-21T07:34:29.765Z,1956.00
2023-05-21T07:35:29.737Z,2531.00
2023-05-21T07:36:29.728Z,2389.00
2023-05-21T07:37:29.698Z,2146.00
2023-05-21T07:38:29.609Z,1856.00
2023-05-21T07:39:29.576Z,2169.00
2023-05-21T07:40:29.580Z,2227.00
2023-05-21T07:41:29.522Z,2641.00
2023-05-21T07:42:29.456Z,2945.00
2023-05-21T07:43:29.415Z,2982.00
2023-05-21T07:44:29.345Z,2879.00
2023-05-21T07:45:29.340Z,2591.00
2023-05-21T07:46:29.316Z,2383.00
2023-05-21T07:47:29.236Z,2376.00
2023-05-21T07:48:30.102Z,2580.00
2023-05-21T07:49:29.116Z,2636.00
2023-05-21T07:50:29.047Z,2973.00
2023-05-21T07:51:29.051Z,2952.00
2023-05-21T07:52:28.977Z,2577.00
2023-05-21T07:53:28.874Z,2271.00
2023-05-21T07:54:28.848Z,1863.00
2023-05-21T07:55:28.817Z,2039.00
2023-05-21T07:56:28.761Z,2462.00
2023-05-21T07:57:28.679Z,2433.00
2023-05-21T07:58:28.619Z,2636.00
2023-05-21T07:59:28.576Z,2962.00
2023-05-21T08:00:28.544Z,2513.00
2023-05-21T08:01:28.469Z,2343.00
2023-05-21T08:02:28.466Z,2371.00
2023-05-21T08:03:28.559Z,2899.00
2023-05-21T08:04:28.460Z,3066.00
2023-05-21T08:05:28.218Z,3105.00
2023-05-21T08:06:28.117Z,2634.00
2023-05-21T08:07:28.052Z,2489.00
2023-05-21T08:08:28.016Z,2509.00
2023-05-21T08:09:27.948Z,2760.00
2023-05-21T08:10:27.884Z,2834.00
2023-05-21T08:11:27.827Z,3067.00
2023-05-21T08:12:27.784Z,3147.00
2023-05-21T08:13:27.725Z,3149.00
2023-05-21T08:14:27.710Z,3016.00
2023-05-21T08:15:27.655Z,3027.00
2023-05-21T08:16:27.688Z,2717.00
2023-05-21T08:17:27.567Z,2855.00
2023-05-21T08:18:27.453Z,2861.00
2023-05-21T08:19:27.495Z,2667.00
2023-05-21T08:20:27.354Z,2590.00
2023-05-21T08:21:27.302Z,3137.00
2023-05-21T08:22:27.248Z,3041.00
2023-05-21T08:23:27.171Z,3133.00
2023-05-21T08:24:27.123Z,3284.00
2023-05-21T08:25:27.064Z,3476.00
2023-05-21T08:26:26.984Z,2961.00
2023-05-21T08:27:26.944Z,2668.00
2023-05-21T08:28:26.895Z,2790.00
2023-05-21T08:29:26.890Z,2800.00
2023-05-21T08:30:26.841Z,2742.00
2023-05-21T08:31:26.772Z,2656.00
2023-05-21T08:32:26.773Z,2795.00
2023-05-21T08:33:26.690Z,2923.00
2023-05-21T08:34:26.644Z,3103.00
2023-05-21T08:35:26.535Z,2882.00
2023-05-21T08:36:26.453Z,3037.00
2023-05-21T08:37:26.352Z,3065.00
2023-05-21T08:38:28.060Z,2779.00
2023-05-21T08:39:26.184Z,2694.00
2023-05-21T08:40:26.114Z,2263.00
2023-05-21T08:41:26.065Z,2352.00
2023-05-21T08:42:36.290Z,2390.00
2023-05-21T08:43:26.850Z,2398.00
2023-05-21T08:44:26.611Z,2395.00
2023-05-21T08:45:25.755Z,2199.00
2023-05-21T08:46:25.697Z,1661.00
2023-05-21T08:47:25.641Z,1619.00
2023-05-21T08:48:25.546Z,1961.00
2023-05-21T08:49:27.147Z,1844.00
2023-05-21T08:50:25.384Z,1805.00
2023-05-21T08:51:25.306Z,2015.00
2023-05-21T08:52:25.210Z,2025.00
2023-05-21T08:53:28.816Z,2131.00
2023-05-21T08:54:25.047Z,2120.00
2023-05-21T08:55:25.012Z,2145.00
2023-05-21T08:56:24.901Z,2217.00
2023-05-21T08:57:24.825Z,2170.00
2023-05-21T08:58:24.742Z,2242.00
2023-05-21T08:59:24.709Z,1754.00
2023-05-21T09:00:24.601Z,1821.00
2023-05-21T09:01:26.507Z,2152.00
2023-05-21T09:02:24.505Z,2388.00
2023-05-21T09:03:24.500Z,2059.00
2023-05-21T09:04:24.388Z,1831.00
2023-05-21T09:05:24.262Z,2334.00
2023-05-21T09:06:24.221Z,2513.00
2023-05-21T09:07:24.139Z,2851.00
2023-05-21T09:08:24.090Z,2160.00
2023-05-21T09:09:24.042Z,2017.00
2023-05-21T09:10:24.018Z,2036.00
2023-05-21T09:11:23.982Z,2079.00
2023-05-21T09:12:23.924Z,1974.00
2023-05-21T09:13:23.907Z,2049.00
2023-05-21T09:14:23.874Z,2010.00
2023-05-21T09:15:23.970Z,2579.00
2023-05-21T09:16:23.787Z,2527.00
2023-05-21T09:17:23.758Z,2494.00
2023-05-21T09:18:23.710Z,2510.00
2023-05-21T09:19:23.680Z,2166.00
2023-05-21T09:20:23.591Z,2700.00
2023-05-21T09:21:23.595Z,2700.00
2023-05-21T09:22:23.521Z,2307.00
2023-05-21T09:23:23.482Z,1883.00
2023-05-21T09:24:23.468Z,2099.00
2023-05-21T09:25:23.429Z,1443.00
2023-05-21T09:26:23.322Z,1140.00
2023-05-21T09:27:23.285Z,1367.00
2023-05-21T09:28:23.237Z,1517.00
2023-05-21T09:29:23.188Z,1841.00
2023-05-21T09:30:26.797Z,2147.00
2023-05-21T09:31:24.142Z,2149.00
2023-05-21T09:32:23.022Z,2191.00
2023-05-21T09:33:22.925Z,2226.00
2023-05-21T09:34:22.825Z,2448.00
2023-05-21T09:35:22.759Z,2561.00
2023-05-21T09:36:22.705Z,1861.00
2023-05-21T09:37:27.655Z,2156.00
2023-05-21T09:38:23.595Z,1883.00
2023-05-21T09:39:22.500Z,1809.00
2023-05-21T09:40:22.431Z,1331.00
2023-05-21T09:41:22.561Z,1669.00
2023-05-21T09:42:22.287Z,1728.00
2023-05-21T09:43:22.202Z,1798.00
2023-05-21T09:44:22.146Z,1628.00
2023-05-21T09:45:22.008Z,1836.00
2023-05-21T09:46:22.007Z,1983.00
2023-05-21T09:47:21.897Z,2262.00
2023-05-21T09:48:21.741Z,2099.00
2023-05-21T09:49:21.666Z,2176.00
2023-05-21T09:50:21.581Z,1877.00
2023-05-21T09:51:21.483Z,1979.00
2023-05-21T09:52:21.451Z,2071.00
2023-05-21T09:53:21.422Z,1703.00
2023-05-21T09:54:21.374Z,1466.00
2023-05-21T09:55:21.286Z,1836.00
2023-05-21T09:56:21.222Z,1893.00
2023-05-21T09:57:21.125Z,1913.00
2023-05-21T09:58:21.019Z,1802.00
2023-05-21T09:59:20.922Z,1950.00
2023-05-21T10:00:20.824Z,2065.00
2023-05-21T10:01:20.733Z,1927.00
2023-05-21T10:02:20.653Z,2298.00
2023-05-21T10:03:20.599Z,1782.00
2023-05-21T10:04:20.414Z,1947.00
2023-05-21T10:05:20.255Z,1948.00
2023-05-21T10:06:20.108Z,1999.00
2023-05-21T10:07:20.014Z,2036.00
2023-05-21T10:08:19.913Z,2193.00
2023-05-21T10:09:19.774Z,1731.00
2023-05-21T10:10:19.605Z,1594.00
2023-05-21T10:11:19.505Z,1734.00
2023-05-21T10:12:19.371Z,1397.00
2023-05-21T10:13:19.250Z,1375.00
2023-05-21T10:14:19.115Z,1386.00
2023-05-21T10:15:18.967Z,1227.00
2023-05-21T10:16:18.923Z,860.00
2023-05-21T10:17:18.755Z,1183.00
2023-05-21T10:18:18.632Z,1151.00
2023-05-21T10:19:18.501Z,1381.00
2023-05-21T10:20:18.372Z,1480.00
2023-05-21T10:21:18.267Z,1497.00
2023-05-21T10:22:18.170Z,1653.00
2023-05-21T10:23:18.060Z,1914.00
2023-05-21T10:24:17.973Z,1885.00
2023-05-21T10:25:17.857Z,2098.00
2023-05-21T10:26:17.761Z,2372.00
2023-05-21T10:27:17.670Z,3405.00
2023-05-21T10:28:17.520Z,2957.00
2023-05-21T10:29:19.413Z,2746.00
2023-05-21T10:30:17.327Z,2762.00
2023-05-21T10:31:17.188Z,2681.00
2023-05-21T10:32:17.162Z,2084.00
2023-05-21T10:33:17.032Z,2054.00
2023-05-21T10:34:16.829Z,2541.00
2023-05-21T10:35:16.685Z,2081.00
2023-05-21T10:36:16.561Z,1828.00
2023-05-21T10:37:16.401Z,2156.00
2023-05-21T10:38:16.250Z,1861.00
2023-05-21T10:39:16.117Z,1444.00
2023-05-21T10:40:16.006Z,2148.00
2023-05-21T10:41:15.871Z,1871.00
2023-05-21T10:42:15.741Z,1979.00
2023-05-21T10:43:15.639Z,2109.00
2023-05-21T10:44:15.533Z,2652.00
2023-05-21T10:45:15.435Z,2838.00
2023-05-21T10:46:15.453Z,2816.00
2023-05-21T10:47:15.267Z,2778.00
2023-05-21T10:48:15.227Z,3157.00
2023-05-21T10:49:15.135Z,2659.00
2023-05-21T10:50:15.160Z,2143.00
2023-05-21T10:51:15.006Z,1570.00
2023-05-21T10:52:14.941Z,1190.00
2023-05-21T10:53:14.842Z,1406.00
2023-05-21T10:54:14.767Z,1849.00
2023-05-21T10:55:14.669Z,1999.00
2023-05-21T10:56:14.600Z,2077.00
2023-05-21T10:57:14.509Z,1415.00
2023-05-21T10:58:14.402Z,1498.00
2023-05-21T10:59:14.297Z,1936.00
2023-05-21T11:00:14.342Z,1988.00
2023-05-21T11:01:14.172Z,4123.00
2023-05-21T11:02:14.059Z,3502.00
2023-05-21T11:03:14.075Z,2855.00
2023-05-21T11:04:13.902Z,2554.00
2023-05-21T11:05:13.797Z,2599.00
2023-05-21T11:06:13.700Z,2768.00
2023-05-21T11:07:13.631Z,2489.00
2023-05-21T11:08:13.528Z,2006.00
2023-05-21T11:09:13.462Z,1633.00
2023-05-21T11:10:13.432Z,1559.00
2023-05-21T11:11:13.430Z,2151.00
2023-05-21T11:12:13.366Z,2093.00
2023-05-21T11:13:13.297Z,1948.00
2023-05-21T11:14:13.239Z,2211.00
2023-05-21T11:15:13.195Z,2288.00
2023-05-21T11:16:13.210Z,2596.00
2023-05-21T11:17:13.147Z,2208.00
2023-05-21T11:18:13.716Z,1758.00
2023-05-21T11:19:12.932Z,3033.00
2023-05-21T11:20:12.798Z,4869.00
2023-05-21T11:21:12.695Z,3647.00
2023-05-21T11:22:12.605Z,3034.00
2023-05-21T11:23:12.534Z,2353.00
2023-05-21T11:24:12.435Z,2535.00
2023-05-21T11:25:12.394Z,3768.00
2023-05-21T11:26:12.273Z,3259.00
2023-05-21T11:27:12.163Z,3642.00
2023-05-21T11:28:12.085Z,3635.00
2023-05-21T11:29:11.991Z,4170.00
2023-05-21T11:30:11.931Z,3699.00
2023-05-21T11:31:11.898Z,3129.00
2023-05-21T11:32:11.726Z,2113.00
2023-05-21T11:33:11.680Z,2696.00
2023-05-21T11:34:11.567Z,2954.00
2023-05-21T11:35:11.470Z,2970.00
2023-05-21T11:36:11.437Z,2691.00
2023-05-21T11:37:11.307Z,2439.00
2023-05-21T11:38:11.272Z,2807.00
2023-05-21T11:39:11.201Z,3094.00
2023-05-21T11:40:11.126Z,3390.00
2023-05-21T11:42:30.431Z,500.00
2023-05-21T11:43:30.408Z,500.00
2023-05-21T11:44:30.356Z,500.00
2023-05-21T11:45:30.336Z,500.00
2023-05-21T11:46:30.349Z,500.00
2023-05-21T11:47:30.357Z,805.00
2023-05-21T11:48:32.421Z,1297.00
2023-05-21T11:49:30.248Z,558.00
2023-05-21T11:50:30.351Z,594.00
2023-05-21T11:51:30.280Z,504.00
2023-05-21T11:52:30.328Z,400.00
2023-05-21T11:53:30.324Z,591.00
2023-05-21T11:54:30.358Z,623.00
2023-05-21T11:55:30.370Z,400.00
2023-05-21T11:56:30.390Z,400.00
2023-05-21T11:57:30.427Z,400.00
2023-05-21T11:58:30.391Z,400.00
2023-05-21T11:59:30.397Z,522.00
2023-05-21T12:00:30.367Z,632.00
2023-05-21T12:01:30.396Z,1032.00
2023-05-21T12:02:30.511Z,1132.00
2023-05-21T12:03:30.636Z,1291.00
2023-05-21T12:04:30.508Z,1216.00
2023-05-21T12:05:30.479Z,1468.00
2023-05-21T12:06:30.543Z,718.00
2023-05-21T12:07:30.618Z,895.00
2023-05-21T12:08:30.511Z,658.00
2023-05-21T12:09:30.544Z,1001.00
2023-05-21T12:10:30.535Z,690.00